sensor_id;sensor_type;location;lat;lon;timestamp;pressure;altitude;pressure_sealevel;temperature;humidity
73936;BME280;62287;50.858;0.252;2022-10-16T00:00:19;100533.11;;;17.31;39.30
73936;BME280;62287;50.858;0.252;2022-10-16T00:00:50;100531.94;;;17.35;39.58
73936;BME280;62287;50.858;0.252;2022-10-16T00:01:23;100534.02;;;16.82;40.71
73936;BME280;62287;50.858;0.252;2022-10-16T00:01:54;100533.57;;;17.29;39.67
73936;BME280;62287;50.858;0.252;2022-10-16T00:02:25;100530.06;;;17.33;39.57
73936;BME280;62287;50.858;0.252;2022-10-16T00:02:56;100530.52;;;17.02;40.08
73936;BME280;62287;50.858;0.252;2022-10-16T00:03:27;100533.92;;;17.22;39.68
73936;BME280;62287;50.858;0.252;2022-10-16T00:03:59;100531.54;;;17.42;39.80
73936;BME280;62287;50.858;0.252;2022-10-16T00:04:30;100531.14;;;17.42;38.64
73936;BME280;62287;50.858;0.252;2022-10-16T00:05:01;100533.87;;;17.31;38.78
73936;BME280;62287;50.858;0.252;2022-10-16T00:05:33;100531.65;;;17.15;38.72
73936;BME280;62287;50.858;0.252;2022-10-16T00:06:09;100529.06;;;17.16;38.56
73936;BME280;62287;50.858;0.252;2022-10-16T00:06:41;100531.39;;;17.02;39.65
73936;BME280;62287;50.858;0.252;2022-10-16T00:07:12;100530.45;;;17.05;40.60
73936;BME280;62287;50.858;0.252;2022-10-16T00:07:43;100527.87;;;17.20;40.24
73936;BME280;62287;50.858;0.252;2022-10-16T00:08:14;100525.17;;;17.03;40.83
73936;BME280;62287;50.858;0.252;2022-10-16T00:08:46;100530.28;;;17.18;39.03
73936;BME280;62287;50.858;0.252;2022-10-16T00:09:17;100529.71;;;17.60;40.33
73936;BME280;62287;50.858;0.252;2022-10-16T00:09:48;100529.44;;;16.70;40.17
73936;BME280;62287;50.858;0.252;2022-10-16T00:10:20;100527.58;;;16.73;40.78
73936;BME280;62287;50.858;0.252;2022-10-16T00:10:51;100525.33;;;16.85;38.65
73936;BME280;62287;50.858;0.252;2022-10-16T00:11:23;100524.72;;;17.16;39.78
73936;BME280;62287;50.858;0.252;2022-10-16T00:11:55;100525.75;;;17.21;39.30
73936;BME280;62287;50.858;0.252;2022-10-16T00:12:26;100523.96;;;16.93;40.82
73936;BME280;62287;50.858;0.252;2022-10-16T00:12:57;100525.38;;;17.01;39.65
73936;BME280;62287;50.858;0.252;2022-10-16T00:13:28;100522.71;;;17.14;40.18
73936;BME280;62287;50.858;0.252;2022-10-16T00:14:00;100526.60;;;16.87;40.28
73936;BME280;62287;50.858;0.252;2022-10-16T00:14:32;100529.18;;;17.13;39.50
73936;BME280;62287;50.858;0.252;2022-10-16T00:15:04;100525.50;;;17.07;40.65
73936;BME280;62287;50.858;0.252;2022-10-16T00:15:35;100528.96;;;17.09;40.47
73936;BME280;62287;50.858;0.252;2022-10-16T00:16:07;100530.11;;;17.23;38.62
73936;BME280;62287;50.858;0.252;2022-10-16T00:16:39;100528.32;;;17.04;40.64
73936;BME280;62287;50.858;0.252;2022-10-16T00:17:10;100527.66;;;17.53;38.80
73936;BME280;62287;50.858;0.252;2022-10-16T00:17:41;100528.37;;;17.11;40.51
73936;BME280;62287;50.858;0.252;2022-10-16T00:18:13;100521.70;;;17.36;40.22
73936;BME280;62287;50.858;0.252;2022-10-16T00:18:44;100523.23;;;17.09;39.69
73936;BME280;62287;50.858;0.252;2022-10-16T00:19:15;100522.61;;;17.25;38.19
73936;BME280;62287;50.858;0.252;2022-10-16T00:19:46;100524.28;;;17.14;39.75
73936;BME280;62287;50.858;0.252;2022-10-16T00:20:17;100525.63;;;17.56;40.49
73936;BME280;62287;50.858;0.252;2022-10-16T00:20:48;100529.88;;;16.84;40.74
73936;BME280;62287;50.858;0.252;2022-10-16T00:21:20;100526.34;;;17.10;40.76
73936;BME280;62287;50.858;0.252;2022-10-16T00:21:52;100529.13;;;17.14;40.81
73936;BME280;62287;50.858;0.252;2022-10-16T00:22:23;100527.55;;;17.00;40.91
73936;BME280;62287;50.858;0.252;2022-10-16T00:22:54;100525.37;;;17.18;40.59
73936;BME280;62287;50.858;0.252;2022-10-16T00:23:25;100528.89;;;17.22;40.71
73936;BME280;62287;50.858;0.252;2022-10-16T00:23:58;100526.92;;;17.25;40.30
73936;BME280;62287;50.858;0.252;2022-10-16T00:24:29;100522.53;;;17.02;40.94
73936;BME280;62287;50.858;0.252;2022-10-16T00:25:00;100528.31;;;17.11;40.90
73936;BME280;62287;50.858;0.252;2022-10-16T00:25:31;100526.90;;;17.12;40.92
73936;BME280;62287;50.858;0.252;2022-10-16T00:26:04;100527.08;;;16.74;40.93
73936;BME280;62287;50.858;0.252;2022-10-16T00:26:37;100525.26;;;17.56;40.82
73936;BME280;62287;50.858;0.252;2022-10-16T00:27:08;100528.96;;;16.86;40.74
73936;BME280;62287;50.858;0.252;2022-10-16T00:27:39;100525.15;;;16.77;40.74
73936;BME280;62287;50.858;0.252;2022-10-16T00:28:10;100526.13;;;17.23;40.55
73936;BME280;62287;50.858;0.252;2022-10-16T00:28:41;100525.52;;;16.98;40.82
73936;BME280;62287;50.858;0.252;2022-10-16T00:29:12;100527.23;;;17.19;40.34
73936;BME280;62287;50.858;0.252;2022-10-16T00:29:43;100532.51;;;16.89;40.54
73936;BME280;62287;50.858;0.252;2022-10-16T00:30:14;100533.23;;;17.25;40.57
73936;BME280;62287;50.858;0.252;2022-10-16T00:30:45;100534.41;;;17.37;40.55
73936;BME280;62287;50.858;0.252;2022-10-16T00:31:18;100534.72;;;17.36;40.43
73936;BME280;62287;50.858;0.252;2022-10-16T00:31:49;100537.89;;;17.31;40.55
73936;BME280;62287;50.858;0.252;2022-10-16T00:32:20;100532.51;;;17.33;40.54
73936;BME280;62287;50.858;0.252;2022-10-16T00:32:51;100526.81;;;16.99;40.49
73936;BME280;62287;50.858;0.252;2022-10-16T00:33:22;100529.72;;;17.01;40.30
73936;BME280;62287;50.858;0.252;2022-10-16T00:33:53;100527.84;;;17.51;40.19
73936;BME280;62287;50.858;0.252;2022-10-16T00:34:24;100528.04;;;17.49;40.27
73936;BME280;62287;50.858;0.252;2022-10-16T00:34:55;100536.19;;;16.92;40.42
73936;BME280;62287;50.858;0.252;2022-10-16T00:35:26;100528.75;;;16.71;40.07
73936;BME280;62287;50.858;0.252;2022-10-16T00:35:58;100535.01;;;16.96;40.34
73936;BME280;62287;50.858;0.252;2022-10-16T00:36:29;100536.94;;;17.42;39.89
73936;BME280;62287;50.858;0.252;2022-10-16T00:37:00;100530.42;;;17.38;39.72
73936;BME280;62287;50.858;0.252;2022-10-16T00:37:31;100534.23;;;17.16;40.09
73936;BME280;62287;50.858;0.252;2022-10-16T00:38:02;100536.18;;;17.41;40.06
73936;BME280;62287;50.858;0.252;2022-10-16T00:38:33;100537.36;;;17.25;39.23
73936;BME280;62287;50.858;0.252;2022-10-16T00:39:04;100538.75;;;17.03;39.67
73936;BME280;62287;50.858;0.252;2022-10-16T00:39:35;100544.85;;;17.40;39.70
73936;BME280;62287;50.858;0.252;2022-10-16T00:40:07;100547.61;;;17.46;39.84
73936;BME280;62287;50.858;0.252;2022-10-16T00:40:39;100548.32;;;17.39;39.87
73936;BME280;62287;50.858;0.252;2022-10-16T00:41:13;100546.08;;;17.44;40.08
73936;BME280;62287;50.858;0.252;2022-10-16T00:41:44;100545.51;;;17.80;39.87
73936;BME280;62287;50.858;0.252;2022-10-16T00:42:17;100552.67;;;17.44;39.77
73936;BME280;62287;50.858;0.252;2022-10-16T00:42:48;100557.19;;;17.40;39.60
73936;BME280;62287;50.858;0.252;2022-10-16T00:43:38;100558.71;;;17.47;39.64
73936;BME280;62287;50.858;0.252;2022-10-16T00:44:45;100564.68;;;17.46;39.90
73936;BME280;62287;50.858;0.252;2022-10-16T00:45:16;100568.48;;;17.62;39.09
73936;BME280;62287;50.858;0.252;2022-10-16T00:45:47;100565.23;;;17.09;39.24
73936;BME280;62287;50.858;0.252;2022-10-16T00:46:20;100568.57;;;17.40;39.22
73936;BME280;62287;50.858;0.252;2022-10-16T00:46:51;100569.08;;;17.59;38.63
73936;BME280;62287;50.858;0.252;2022-10-16T00:47:26;100571.97;;;17.47;38.99
73936;BME280;62287;50.858;0.252;2022-10-16T00:47:58;100570.11;;;17.45;38.37
73936;BME280;62287;50.858;0.252;2022-10-16T00:48:30;100566.82;;;17.23;38.22
73936;BME280;62287;50.858;0.252;2022-10-16T00:49:05;100562.97;;;17.22;38.46
73936;BME280;62287;50.858;0.252;2022-10-16T00:49:37;100566.06;;;17.23;38.09
73936;BME280;62287;50.858;0.252;2022-10-16T00:50:10;100566.61;;;17.12;38.12
73936;BME280;62287;50.858;0.252;2022-10-16T00:50:44;100566.46;;;17.09;38.80
73936;BME280;62287;50.858;0.252;2022-10-16T00:51:15;100570.43;;;17.00;38.69
73936;BME280;62287;50.858;0.252;2022-10-16T00:51:50;100565.72;;;16.98;39.42
73936;BME280;62287;50.858;0.252;2022-10-16T00:52:21;100558.52;;;16.92;38.32
73936;BME280;62287;50.858;0.252;2022-10-16T00:52:52;100562.84;;;16.90;39.45
73936;BME280;62287;50.858;0.252;2022-10-16T00:53:25;100559.79;;;17.32;39.14
73936;BME280;62287;50.858;0.252;2022-10-16T00:53:56;100556.18;;;17.37;37.99
73936;BME280;62287;50.858;0.252;2022-10-16T00:54:29;100560.46;;;17.33;38.45
73936;BME280;62287;50.858;0.252;2022-10-16T00:55:02;100563.43;;;17.39;39.73
73936;BME280;62287;50.858;0.252;2022-10-16T00:55:34;100563.31;;;17.22;39.07
73936;BME280;62287;50.858;0.252;2022-10-16T00:56:05;100561.85;;;17.51;38.93
73936;BME280;62287;50.858;0.252;2022-10-16T00:56:36;100561.46;;;16.95;39.65
73936;BME280;62287;50.858;0.252;2022-10-16T00:57:08;100561.94;;;17.04;39.66
73936;BME280;62287;50.858;0.252;2022-10-16T00:57:40;100563.54;;;16.95;39.19
73936;BME280;62287;50.858;0.252;2022-10-16T00:58:12;100560.07;;;17.32;39.39
73936;BME280;62287;50.858;0.252;2022-10-16T00:58:43;100566.04;;;17.11;39.53
73936;BME280;62287;50.858;0.252;2022-10-16T00:59:16;100563.47;;;17.00;39.97
73936;BME280;62287;50.858;0.252;2022-10-16T00:59:48;100562.42;;;17.01;39.06
73936;BME280;62287;50.858;0.252;2022-10-16T01:00:21;100574.34;;;16.93;40.36
73936;BME280;62287;50.858;0.252;2022-10-16T01:00:53;100575.47;;;17.12;39.05
73936;BME280;62287;50.858;0.252;2022-10-16T01:01:24;100575.57;;;17.12;39.35
73936;BME280;62287;50.858;0.252;2022-10-16T01:01:56;100573.41;;;17.07;39.96
73936;BME280;62287;50.858;0.252;2022-10-16T01:02:27;100578.41;;;17.07;40.09
73936;BME280;62287;50.858;0.252;2022-10-16T01:03:00;100579.26;;;17.09;40.39
73936;BME280;62287;50.858;0.252;2022-10-16T01:03:34;100583.78;;;17.48;39.66
73936;BME280;62287;50.858;0.252;2022-10-16T01:04:05;100580.56;;;16.96;40.43
73936;BME280;62287;50.858;0.252;2022-10-16T01:04:38;100582.43;;;17.35;40.16
73936;BME280;62287;50.858;0.252;2022-10-16T01:05:10;100579.72;;;17.34;40.53
73936;BME280;62287;50.858;0.252;2022-10-16T01:05:48;100581.66;;;17.05;40.42
73936;BME280;62287;50.858;0.252;2022-10-16T01:06:24;100578.58;;;16.78;39.85
73936;BME280;62287;50.858;0.252;2022-10-16T01:07:02;100580.01;;;17.01;39.88
73936;BME280;62287;50.858;0.252;2022-10-16T01:07:44;100583.72;;;17.50;39.82
73936;BME280;62287;50.858;0.252;2022-10-16T01:08:27;100581.20;;;17.18;40.09
73936;BME280;62287;50.858;0.252;2022-10-16T01:09:13;100585.02;;;17.16;40.45
73936;BME280;62287;50.858;0.252;2022-10-16T01:09:52;100585.21;;;17.15;40.33
73936;BME280;62287;50.858;0.252;2022-10-16T01:10:30;100587.54;;;17.48;40.37
73936;BME280;62287;50.858;0.252;2022-10-16T01:11:11;100581.92;;;17.07;40.19
73936;BME280;62287;50.858;0.252;2022-10-16T01:11:56;100588.72;;;17.16;40.39
73936;BME280;62287;50.858;0.252;2022-10-16T01:12:36;100581.54;;;16.81;40.22
73936;BME280;62287;50.858;0.252;2022-10-16T01:13:11;100586.47;;;16.81;39.50
73936;BME280;62287;50.858;0.252;2022-10-16T01:13:46;100587.71;;;16.90;40.24
73936;BME280;62287;50.858;0.252;2022-10-16T01:14:25;100586.43;;;17.35;40.14
73936;BME280;62287;50.858;0.252;2022-10-16T01:15:21;100579.78;;;16.99;40.01
73936;BME280;62287;50.858;0.252;2022-10-16T01:16:05;100593.26;;;17.34;39.28
73936;BME280;62287;50.858;0.252;2022-10-16T01:16:43;100581.43;;;17.57;38.47
73936;BME280;62287;50.858;0.252;2022-10-16T01:17:19;100582.67;;;17.11;39.57
73936;BME280;62287;50.858;0.252;2022-10-16T01:17:58;100577.76;;;17.59;39.80
73936;BME280;62287;50.858;0.252;2022-10-16T01:18:35;100576.28;;;17.20;38.89
73936;BME280;62287;50.858;0.252;2022-10-16T01:19:14;100579.52;;;17.55;39.26
73936;BME280;62287;50.858;0.252;2022-10-16T01:20:02;100579.91;;;17.57;39.73
73936;BME280;62287;50.858;0.252;2022-10-16T01:20:35;100574.13;;;16.99;39.94
73936;BME280;62287;50.858;0.252;2022-10-16T01:21:10;100573.42;;;17.56;39.44
73936;BME280;62287;50.858;0.252;2022-10-16T01:21:46;100576.77;;;17.57;38.80
73936;BME280;62287;50.858;0.252;2022-10-16T01:22:19;100574.64;;;17.03;38.48
73936;BME280;62287;50.858;0.252;2022-10-16T01:23:02;100586.65;;;17.39;39.42
73936;BME280;62287;50.858;0.252;2022-10-16T01:23:43;100584.63;;;17.39;39.37
73936;BME280;62287;50.858;0.252;2022-10-16T01:24:31;100585.89;;;16.94;39.37
73936;BME280;62287;50.858;0.252;2022-10-16T01:25:09;100587.91;;;16.92;39.86
73936;BME280;62287;50.858;0.252;2022-10-16T01:26:31;100591.25;;;17.16;39.93
73936;BME280;62287;50.858;0.252;2022-10-16T01:27:10;100593.55;;;17.25;39.40
73936;BME280;62287;50.858;0.252;2022-10-16T01:27:43;100589.29;;;17.32;39.55
73936;BME280;62287;50.858;0.252;2022-10-16T01:28:18;100588.39;;;16.81;39.94
73936;BME280;62287;50.858;0.252;2022-10-16T01:28:54;100590.98;;;17.38;39.54
73936;BME280;62287;50.858;0.252;2022-10-16T01:29:29;100589.90;;;16.92;39.89
73936;BME280;62287;50.858;0.252;2022-10-16T01:30:07;100585.63;;;17.41;39.84
73936;BME280;62287;50.858;0.252;2022-10-16T01:30:42;100588.13;;;17.18;39.23
73936;BME280;62287;50.858;0.252;2022-10-16T01:31:18;100586.25;;;17.61;39.05
73936;BME280;62287;50.858;0.252;2022-10-16T01:31:56;100586.34;;;17.55;39.30
73936;BME280;62287;50.858;0.252;2022-10-16T01:32:32;100587.93;;;17.03;39.35
73936;BME280;62287;50.858;0.252;2022-10-16T01:33:09;100594.97;;;17.31;39.30
73936;BME280;62287;50.858;0.252;2022-10-16T01:33:43;100595.71;;;16.79;40.02
73936;BME280;62287;50.858;0.252;2022-10-16T01:34:20;100587.78;;;17.41;39.78
73936;BME280;62287;50.858;0.252;2022-10-16T01:34:55;100595.87;;;17.47;39.07
73936;BME280;62287;50.858;0.252;2022-10-16T01:35:32;100587.78;;;17.51;39.11
73936;BME280;62287;50.858;0.252;2022-10-16T01:36:10;100585.58;;;16.78;39.32
73936;BME280;62287;50.858;0.252;2022-10-16T01:36:47;100587.20;;;16.97;38.92
73936;BME280;62287;50.858;0.252;2022-10-16T01:37:27;100585.54;;;17.17;39.64
73936;BME280;62287;50.858;0.252;2022-10-16T01:38:03;100590.88;;;17.17;39.73
73936;BME280;62287;50.858;0.252;2022-10-16T01:38:37;100585.99;;;17.29;38.82
73936;BME280;62287;50.858;0.252;2022-10-16T01:39:10;100589.34;;;17.22;38.79
73936;BME280;62287;50.858;0.252;2022-10-16T01:39:45;100590.21;;;17.12;38.73
73936;BME280;62287;50.858;0.252;2022-10-16T01:40:19;100590.57;;;16.77;39.71
73936;BME280;62287;50.858;0.252;2022-10-16T01:40:54;100585.79;;;17.17;39.79
73936;BME280;62287;50.858;0.252;2022-10-16T01:41:31;100596.20;;;17.69;39.56
73936;BME280;62287;50.858;0.252;2022-10-16T01:42:06;100594.54;;;17.31;39.76
73936;BME280;62287;50.858;0.252;2022-10-16T01:42:41;100591.05;;;17.04;39.96
73936;BME280;62287;50.858;0.252;2022-10-16T01:43:15;100594.17;;;16.83;39.69
73936;BME280;62287;50.858;0.252;2022-10-16T01:43:49;100598.78;;;17.14;39.06
73936;BME280;62287;50.858;0.252;2022-10-16T01:44:27;100595.62;;;17.30;39.61
73936;BME280;62287;50.858;0.252;2022-10-16T01:45:00;100586.26;;;17.01;39.93
73936;BME280;62287;50.858;0.252;2022-10-16T01:45:32;100590.26;;;17.11;39.17
73936;BME280;62287;50.858;0.252;2022-10-16T01:46:05;100586.98;;;17.20;39.06
73936;BME280;62287;50.858;0.252;2022-10-16T01:46:39;100590.87;;;17.06;39.54
73936;BME280;62287;50.858;0.252;2022-10-16T01:47:13;100591.94;;;16.98;40.16
73936;BME280;62287;50.858;0.252;2022-10-16T01:47:46;100587.78;;;17.07;39.22
73936;BME280;62287;50.858;0.252;2022-10-16T01:48:20;100583.64;;;17.15;39.16
73936;BME280;62287;50.858;0.252;2022-10-16T01:48:52;100587.68;;;17.00;39.16
73936;BME280;62287;50.858;0.252;2022-10-16T01:49:27;100586.68;;;16.96;39.78
73936;BME280;62287;50.858;0.252;2022-10-16T01:50:02;100584.88;;;17.13;39.65
73936;BME280;62287;50.858;0.252;2022-10-16T01:50:38;100586.09;;;17.05;39.90
73936;BME280;62287;50.858;0.252;2022-10-16T01:51:12;100585.13;;;16.45;40.26
73936;BME280;62287;50.858;0.252;2022-10-16T01:51:47;100586.80;;;16.88;40.27
73936;BME280;62287;50.858;0.252;2022-10-16T01:52:23;100586.83;;;17.08;39.06
73936;BME280;62287;50.858;0.252;2022-10-16T01:52:56;100585.11;;;16.96;38.68
73936;BME280;62287;50.858;0.252;2022-10-16T01:53:29;100587.63;;;16.87;39.12
73936;BME280;62287;50.858;0.252;2022-10-16T01:54:00;100582.83;;;16.80;38.86
73936;BME280;62287;50.858;0.252;2022-10-16T01:54:34;100578.76;;;16.79;39.83
73936;BME280;62287;50.858;0.252;2022-10-16T01:55:09;100584.23;;;16.88;39.69
73936;BME280;62287;50.858;0.252;2022-10-16T01:55:44;100586.26;;;16.94;38.32
73936;BME280;62287;50.858;0.252;2022-10-16T01:56:17;100581.64;;;16.83;39.52
73936;BME280;62287;50.858;0.252;2022-10-16T01:56:50;100586.72;;;16.84;40.11
73936;BME280;62287;50.858;0.252;2022-10-16T01:57:23;100582.30;;;16.89;39.45
73936;BME280;62287;50.858;0.252;2022-10-16T01:57:55;100582.44;;;16.80;40.08
73936;BME280;62287;50.858;0.252;2022-10-16T01:58:28;100579.21;;;17.27;40.14
73936;BME280;62287;50.858;0.252;2022-10-16T01:59:04;100582.39;;;16.97;39.89
73936;BME280;62287;50.858;0.252;2022-10-16T01:59:40;100579.91;;;16.80;40.14
73936;BME280;62287;50.858;0.252;2022-10-16T02:00:14;100583.73;;;17.00;40.06
73936;BME280;62287;50.858;0.252;2022-10-16T02:00:48;100579.07;;;16.81;39.33
73936;BME280;62287;50.858;0.252;2022-10-16T02:01:22;100576.17;;;16.97;39.19
73936;BME280;62287;50.858;0.252;2022-10-16T02:01:58;100582.57;;;16.91;39.98
73936;BME280;62287;50.858;0.252;2022-10-16T02:02:30;100582.63;;;16.92;40.01
73936;BME280;62287;50.858;0.252;2022-10-16T02:03:03;100583.75;;;17.01;38.51
73936;BME280;62287;50.858;0.252;2022-10-16T02:03:35;100582.99;;;16.91;38.39
73936;BME280;62287;50.858;0.252;2022-10-16T02:04:09;100586.14;;;16.71;40.08
73936;BME280;62287;50.858;0.252;2022-10-16T02:04:46;100584.19;;;17.23;37.87
73936;BME280;62287;50.858;0.252;2022-10-16T02:05:21;100585.34;;;16.71;39.12
73936;BME280;62287;50.858;0.252;2022-10-16T02:05:55;100589.30;;;16.81;39.59
73936;BME280;62287;50.858;0.252;2022-10-16T02:06:27;100591.78;;;17.34;38.91
73936;BME280;62287;50.858;0.252;2022-10-16T02:06:58;100585.86;;;16.87;40.12
73936;BME280;62287;50.858;0.252;2022-10-16T02:07:29;100593.80;;;16.92;39.56
73936;BME280;62287;50.858;0.252;2022-10-16T02:08:01;100585.39;;;16.85;39.09
73936;BME280;62287;50.858;0.252;2022-10-16T02:08:33;100587.33;;;16.71;38.98
73936;BME280;62287;50.858;0.252;2022-10-16T02:09:04;100585.56;;;16.61;40.18
73936;BME280;62287;50.858;0.252;2022-10-16T02:09:35;100584.79;;;17.07;37.94
73936;BME280;62287;50.858;0.252;2022-10-16T02:10:07;100586.09;;;17.16;37.69
73936;BME280;62287;50.858;0.252;2022-10-16T02:10:39;100592.83;;;16.07;39.01
73936;BME280;62287;50.858;0.252;2022-10-16T02:11:10;100591.04;;;16.64;38.88
73936;BME280;62287;50.858;0.252;2022-10-16T02:11:41;100592.14;;;16.54;39.05
73936;BME280;62287;50.858;0.252;2022-10-16T02:12:15;100592.86;;;16.73;38.40
73936;BME280;62287;50.858;0.252;2022-10-16T02:12:55;100590.63;;;17.09;39.08
73936;BME280;62287;50.858;0.252;2022-10-16T02:13:31;100588.96;;;16.73;38.30
73936;BME280;62287;50.858;0.252;2022-10-16T02:14:05;100595.03;;;16.67;39.51
73936;BME280;62287;50.858;0.252;2022-10-16T02:14:39;100588.61;;;16.66;39.41
73936;BME280;62287;50.858;0.252;2022-10-16T02:15:10;100591.30;;;16.79;39.96
73936;BME280;62287;50.858;0.252;2022-10-16T02:15:41;100594.81;;;17.03;38.05
73936;BME280;62287;50.858;0.252;2022-10-16T02:16:13;100592.70;;;17.23;37.15
73936;BME280;62287;50.858;0.252;2022-10-16T02:16:46;100591.91;;;16.79;36.60
73936;BME280;62287;50.858;0.252;2022-10-16T02:17:18;100593.01;;;16.67;38.37
73936;BME280;62287;50.858;0.252;2022-10-16T02:17:49;100593.90;;;16.63;37.24
73936;BME280;62287;50.858;0.252;2022-10-16T02:18:20;100597.51;;;16.65;37.83
73936;BME280;62287;50.858;0.252;2022-10-16T02:18:51;100587.64;;;16.50;38.59
73936;BME280;62287;50.858;0.252;2022-10-16T02:19:22;100597.64;;;16.92;37.33
73936;BME280;62287;50.858;0.252;2022-10-16T02:19:55;100595.08;;;17.10;37.37
73936;BME280;62287;50.858;0.252;2022-10-16T02:20:28;100593.11;;;16.63;37.97
73936;BME280;62287;50.858;0.252;2022-10-16T02:21:07;100590.34;;;17.49;38.28
73936;BME280;62287;50.858;0.252;2022-10-16T02:21:44;100599.77;;;16.97;38.44
73936;BME280;62287;50.858;0.252;2022-10-16T02:22:22;100598.58;;;17.08;39.42
73936;BME280;62287;50.858;0.252;2022-10-16T02:22:56;100595.59;;;17.10;39.02
73936;BME280;62287;50.858;0.252;2022-10-16T02:23:35;100602.40;;;16.68;40.10
73936;BME280;62287;50.858;0.252;2022-10-16T02:24:13;100599.17;;;16.62;39.98
73936;BME280;62287;50.858;0.252;2022-10-16T02:24:51;100602.78;;;16.98;40.13
73936;BME280;62287;50.858;0.252;2022-10-16T02:25:28;100605.71;;;16.54;39.35
73936;BME280;62287;50.858;0.252;2022-10-16T02:26:03;100602.08;;;16.96;40.30
73936;BME280;62287;50.858;0.252;2022-10-16T02:26:38;100607.56;;;16.71;40.32
73936;BME280;62287;50.858;0.252;2022-10-16T02:27:15;100604.51;;;17.07;38.57
73936;BME280;62287;50.858;0.252;2022-10-16T02:27:54;100608.06;;;16.93;38.70
73936;BME280;62287;50.858;0.252;2022-10-16T02:28:32;100607.95;;;16.80;40.45
73936;BME280;62287;50.858;0.252;2022-10-16T02:29:08;100613.63;;;16.60;39.98
73936;BME280;62287;50.858;0.252;2022-10-16T02:29:45;100618.29;;;17.10;39.94
73936;BME280;62287;50.858;0.252;2022-10-16T02:30:21;100617.03;;;16.50;37.87
73936;BME280;62287;50.858;0.252;2022-10-16T02:30:58;100622.42;;;16.60;38.55
73936;BME280;62287;50.858;0.252;2022-10-16T02:31:33;100614.80;;;16.59;39.38
73936;BME280;62287;50.858;0.252;2022-10-16T02:32:06;100615.87;;;16.64;40.07
73936;BME280;62287;50.858;0.252;2022-10-16T02:32:42;100623.98;;;16.68;40.06
73936;BME280;62287;50.858;0.252;2022-10-16T02:33:16;100622.30;;;16.82;38.82
73936;BME280;62287;50.858;0.252;2022-10-16T02:33:50;100619.70;;;16.77;38.43
73936;BME280;62287;50.858;0.252;2022-10-16T02:34:22;100621.78;;;17.06;38.68
73936;BME280;62287;50.858;0.252;2022-10-16T02:34:55;100623.45;;;16.71;39.59
73936;BME280;62287;50.858;0.252;2022-10-16T02:35:27;100624.53;;;16.25;40.29
73936;BME280;62287;50.858;0.252;2022-10-16T02:35:59;100626.44;;;16.86;39.63
73936;BME280;62287;50.858;0.252;2022-10-16T02:36:31;100627.37;;;17.35;37.65
73936;BME280;62287;50.858;0.252;2022-10-16T02:37:04;100629.46;;;17.04;37.15
73936;BME280;62287;50.858;0.252;2022-10-16T02:37:36;100629.60;;;16.73;38.50
73936;BME280;62287;50.858;0.252;2022-10-16T02:38:09;100632.67;;;16.79;39.72
73936;BME280;62287;50.858;0.252;2022-10-16T02:38:41;100635.77;;;16.77;40.13
73936;BME280;62287;50.858;0.252;2022-10-16T02:39:13;100632.86;;;16.73;40.19
73936;BME280;62287;50.858;0.252;2022-10-16T02:39:45;100632.99;;;16.87;38.54
73936;BME280;62287;50.858;0.252;2022-10-16T02:40:17;100630.84;;;16.75;39.95
73936;BME280;62287;50.858;0.252;2022-10-16T02:40:48;100636.41;;;16.94;38.08
73936;BME280;62287;50.858;0.252;2022-10-16T02:41:21;100637.78;;;16.79;38.11
73936;BME280;62287;50.858;0.252;2022-10-16T02:41:52;100637.06;;;17.19;39.32
73936;BME280;62287;50.858;0.252;2022-10-16T02:42:28;100633.24;;;16.83;37.31
73936;BME280;62287;50.858;0.252;2022-10-16T02:42:59;100635.95;;;16.70;39.44
73936;BME280;62287;50.858;0.252;2022-10-16T02:43:30;100639.70;;;17.18;38.55
73936;BME280;62287;50.858;0.252;2022-10-16T02:44:01;100642.50;;;17.08;38.88
73936;BME280;62287;50.858;0.252;2022-10-16T02:44:32;100643.07;;;16.68;39.23
73936;BME280;62287;50.858;0.252;2022-10-16T02:45:03;100641.51;;;16.63;39.77
73936;BME280;62287;50.858;0.252;2022-10-16T02:45:34;100643.69;;;16.89;40.42
73936;BME280;62287;50.858;0.252;2022-10-16T02:46:06;100646.89;;;16.61;40.43
73936;BME280;62287;50.858;0.252;2022-10-16T02:46:36;100645.44;;;16.56;38.19
73936;BME280;62287;50.858;0.252;2022-10-16T02:47:07;100647.07;;;16.85;39.27
73936;BME280;62287;50.858;0.252;2022-10-16T02:47:38;100644.56;;;17.06;37.89
73936;BME280;62287;50.858;0.252;2022-10-16T02:48:09;100645.67;;;16.67;38.14
73936;BME280;62287;50.858;0.252;2022-10-16T02:48:40;100647.00;;;16.48;38.88
73936;BME280;62287;50.858;0.252;2022-10-16T02:49:11;100647.21;;;17.10;37.80
73936;BME280;62287;50.858;0.252;2022-10-16T02:49:42;100648.35;;;16.53;38.63
73936;BME280;62287;50.858;0.252;2022-10-16T02:50:13;100651.70;;;16.57;37.66
73936;BME280;62287;50.858;0.252;2022-10-16T02:50:45;100654.68;;;16.52;37.55
73936;BME280;62287;50.858;0.252;2022-10-16T02:51:15;100657.86;;;16.21;37.44
73936;BME280;62287;50.858;0.252;2022-10-16T02:51:46;100666.70;;;15.94;37.40
73936;BME280;62287;50.858;0.252;2022-10-16T02:52:17;100668.77;;;16.10;38.21
73936;BME280;62287;50.858;0.252;2022-10-16T02:52:48;100670.98;;;16.19;37.58
73936;BME280;62287;50.858;0.252;2022-10-16T02:53:19;100669.06;;;16.36;37.32
73936;BME280;62287;50.858;0.252;2022-10-16T02:53:50;100666.65;;;16.62;38.02
73936;BME280;62287;50.858;0.252;2022-10-16T02:54:21;100669.56;;;16.06;37.88
73936;BME280;62287;50.858;0.252;2022-10-16T02:54:52;100668.63;;;16.80;37.94
73936;BME280;62287;50.858;0.252;2022-10-16T02:55:23;100666.79;;;15.93;37.49
73936;BME280;62287;50.858;0.252;2022-10-16T02:55:54;100665.77;;;16.26;38.02
73936;BME280;62287;50.858;0.252;2022-10-16T02:56:25;100666.92;;;16.13;38.23
73936;BME280;62287;50.858;0.252;2022-10-16T02:56:56;100667.01;;;16.09;38.10